createdAt,value
2023-03-02T00:02:01.746Z,10.82
2023-03-02T00:04:46.367Z,10.85
2023-03-02T00:07:16.884Z,10.82
2023-03-02T00:09:44.543Z,9.52
2023-03-02T00:12:11.717Z,10.90
2023-03-02T00:14:38.165Z,9.65
2023-03-02T00:17:05.295Z,9.65
2023-03-02T00:19:31.721Z,9.93
2023-03-02T00:21:58.136Z,9.25
2023-03-02T00:24:24.559Z,9.25
2023-03-02T00:26:50.944Z,10.07
2023-03-02T00:29:17.417Z,9.23
2023-03-02T00:31:43.959Z,9.32
2023-03-02T00:34:10.397Z,8.48
2023-03-02T00:36:36.807Z,8.05
2023-03-02T00:39:04.475Z,8.48
2023-03-02T00:41:30.873Z,9.40
2023-03-02T00:43:57.256Z,8.63
2023-03-02T00:46:25.176Z,8.13
2023-03-02T00:48:52.742Z,7.88
2023-03-02T00:51:19.568Z,9.15
2023-03-02T00:53:46.475Z,8.38
2023-03-02T00:56:13.204Z,7.88
2023-03-02T00:58:44.754Z,7.70
2023-03-02T01:01:13.493Z,8.00
2023-03-02T01:03:44.766Z,8.80
2023-03-02T01:06:19.911Z,7.85
2023-03-02T01:08:46.507Z,8.10
2023-03-02T01:11:18.219Z,7.88
2023-03-02T01:13:45.692Z,8.52
2023-03-02T01:16:12.656Z,7.68
2023-03-02T01:18:39.790Z,7.78
2023-03-02T01:21:09.533Z,7.60
2023-03-02T01:23:35.957Z,6.97
2023-03-02T01:26:03.121Z,7.45
2023-03-02T01:28:29.517Z,7.38
2023-03-02T01:30:55.967Z,6.97
2023-03-02T01:33:22.829Z,7.05
2023-03-02T01:35:49.593Z,7.50
2023-03-02T01:38:16.088Z,7.63
2023-03-02T01:40:43.601Z,7.07
2023-03-02T01:43:13.500Z,7.15
2023-03-02T01:45:53.108Z,7.10
2023-03-02T01:48:31.617Z,6.10
2023-03-02T01:50:58.705Z,7.82
2023-03-02T01:53:29.240Z,6.57
2023-03-02T01:55:57.135Z,6.90
2023-03-02T01:58:25.872Z,7.32
2023-03-02T02:00:54.559Z,7.82
2023-03-02T02:03:24.862Z,7.18
2023-03-02T02:06:08.972Z,7.45
2023-03-02T02:08:36.503Z,7.10
2023-03-02T02:11:03.306Z,6.97
2023-03-02T02:13:30.266Z,7.43
2023-03-02T02:15:56.665Z,6.97
2023-03-02T02:18:23.734Z,8.02
2023-03-02T02:20:54.000Z,6.53
2023-03-02T02:23:34.362Z,7.97
2023-03-02T02:26:29.210Z,8.40
2023-03-02T02:29:00.502Z,8.23
2023-03-02T02:31:35.241Z,7.90
2023-03-02T02:34:13.816Z,9.07
2023-03-02T02:36:43.439Z,7.82
2023-03-02T02:39:21.238Z,8.25
2023-03-02T02:41:50.852Z,8.35
2023-03-02T02:44:19.187Z,8.48
2023-03-02T02:46:45.861Z,7.68
2023-03-02T02:49:29.033Z,8.77
2023-03-02T02:51:55.469Z,7.75
2023-03-02T02:54:23.005Z,7.55
2023-03-02T02:56:50.984Z,8.30
2023-03-02T02:59:22.645Z,8.50
2023-03-02T03:01:50.688Z,7.72
2023-03-02T03:04:24.341Z,8.10
2023-03-02T03:06:56.631Z,8.15
2023-03-02T03:09:23.941Z,8.85
2023-03-02T03:11:52.759Z,8.95
2023-03-02T03:14:22.450Z,8.32
2023-03-02T03:16:51.781Z,8.40
2023-03-02T03:19:24.170Z,8.52
2023-03-02T03:21:55.200Z,8.10
2023-03-02T03:24:25.090Z,9.05
2023-03-02T03:26:54.167Z,7.78
2023-03-02T03:29:24.079Z,7.85
2023-03-02T03:31:53.359Z,7.93
2023-03-02T03:34:21.237Z,9.55
2023-03-02T03:36:47.962Z,8.30
2023-03-02T03:39:16.152Z,9.25
2023-03-02T03:41:43.511Z,8.75
2023-03-02T03:44:11.267Z,8.63
2023-03-02T03:46:40.229Z,8.90
2023-03-02T03:49:06.807Z,8.85
2023-03-02T03:51:35.296Z,8.68
2023-03-02T03:54:05.305Z,9.05
2023-03-02T03:56:39.165Z,9.40
2023-03-02T03:59:08.051Z,8.50
2023-03-02T04:01:47.177Z,8.77
2023-03-02T04:04:24.531Z,9.40
2023-03-02T04:06:51.527Z,8.50
2023-03-02T04:09:19.179Z,8.95
2023-03-02T04:11:48.860Z,8.48
2023-03-02T04:14:16.909Z,9.25
2023-03-02T04:16:44.385Z,9.77
2023-03-02T04:19:12.825Z,9.88
2023-03-02T04:21:45.005Z,9.07
2023-03-02T04:24:13.261Z,9.70
2023-03-02T04:26:42.044Z,9.55
2023-03-02T04:29:10.259Z,9.93
2023-03-02T04:31:38.467Z,10.38
2023-03-02T04:34:05.863Z,10.05
2023-03-02T04:36:35.671Z,8.30
2023-03-02T04:39:05.318Z,10.38
2023-03-02T04:41:32.568Z,10.15
2023-03-02T04:43:59.088Z,10.77
2023-03-02T04:46:27.112Z,9.85
2023-03-02T04:48:54.328Z,10.32
2023-03-02T04:51:25.081Z,10.48
2023-03-02T04:53:57.731Z,12.30
2023-03-02T04:56:24.280Z,10.43
2023-03-02T04:58:50.769Z,10.63
2023-03-02T05:01:18.658Z,11.07
2023-03-02T05:03:45.872Z,12.27
2023-03-02T05:06:12.725Z,10.93
2023-03-02T05:08:39.763Z,11.13
2023-03-02T05:11:07.828Z,10.93
2023-03-02T05:13:35.277Z,11.82
2023-03-02T05:16:01.815Z,10.93
2023-03-02T05:18:28.289Z,10.68
2023-03-02T05:20:55.254Z,11.73
2023-03-02T05:23:27.045Z,10.55
2023-03-02T05:25:55.679Z,10.57
2023-03-02T05:28:24.552Z,11.13
2023-03-02T05:30:51.562Z,11.43
2023-03-02T05:33:19.157Z,12.05
2023-03-02T05:35:46.142Z,12.55
2023-03-02T05:38:13.212Z,10.73
2023-03-02T05:40:40.277Z,11.07
2023-03-02T05:43:07.293Z,12.60
2023-03-02T05:45:37.172Z,12.45
2023-03-02T05:48:04.775Z,12.35
2023-03-02T05:50:31.892Z,12.95
2023-03-02T05:53:00.119Z,12.18
2023-03-02T05:55:26.624Z,13.52
2023-03-02T05:57:53.167Z,12.30
2023-03-02T06:00:20.641Z,12.65
2023-03-02T06:02:47.645Z,12.85
2023-03-02T06:05:17.026Z,12.77
2023-03-02T06:07:44.319Z,12.93
2023-03-02T06:10:12.503Z,12.35
2023-03-02T06:12:39.251Z,14.63
2023-03-02T06:15:07.188Z,13.23
2023-03-02T06:17:46.024Z,14.10
2023-03-02T06:20:13.213Z,15.10
2023-03-02T06:22:42.055Z,15.23
2023-03-02T06:25:10.352Z,15.50
2023-03-02T06:27:38.877Z,15.57
2023-03-02T06:30:08.762Z,16.35
2023-03-02T06:32:35.547Z,16.65
2023-03-02T06:35:03.184Z,19.08
2023-03-02T06:37:30.062Z,20.27
2023-03-02T06:39:57.423Z,18.52
2023-03-02T06:42:25.118Z,21.55
2023-03-02T06:44:51.785Z,23.50
2023-03-02T06:47:18.698Z,24.10
2023-03-02T06:49:45.133Z,23.17
2023-03-02T06:52:13.518Z,23.98
2023-03-02T06:54:40.549Z,25.38
2023-03-02T06:57:07.529Z,26.25
2023-03-02T06:59:34.780Z,26.40
2023-03-02T07:02:01.352Z,25.50
2023-03-02T07:04:30.444Z,25.67
2023-03-02T07:06:57.072Z,27.05
2023-03-02T07:09:23.582Z,25.60
2023-03-02T07:11:49.977Z,26.27
2023-03-02T07:14:16.353Z,28.83
2023-03-02T07:16:42.800Z,28.05
2023-03-02T07:19:13.891Z,26.92
2023-03-02T07:24:07.483Z,24.90
2023-03-02T07:26:33.956Z,29.42
2023-03-02T07:29:00.905Z,28.17
2023-03-02T07:31:27.890Z,27.45
2023-03-02T07:33:54.411Z,29.52
2023-03-02T07:36:21.008Z,29.17
2023-03-02T07:38:48.555Z,33.70
2023-03-02T07:41:16.683Z,31.15
2023-03-02T07:43:43.349Z,29.08
2023-03-02T07:46:09.785Z,31.05
2023-03-02T07:48:36.213Z,30.13
2023-03-02T07:51:05.031Z,32.80
2023-03-02T07:53:31.551Z,29.50
2023-03-02T07:55:58.100Z,30.65
2023-03-02T07:58:24.531Z,30.95
2023-03-02T08:00:51.082Z,30.83
2023-03-02T08:03:17.513Z,31.85
2023-03-02T08:05:43.915Z,31.15
2023-03-02T08:08:10.340Z,31.60
2023-03-02T08:10:37.050Z,30.08
2023-03-02T08:13:03.870Z,30.73
2023-03-02T08:15:30.323Z,30.95
2023-03-02T08:17:56.728Z,34.55
2023-03-02T08:20:23.265Z,31.40
2023-03-02T08:22:50.105Z,32.58
2023-03-02T08:25:16.540Z,36.55
2023-03-02T08:27:44.132Z,33.28
2023-03-02T08:30:10.991Z,34.35
2023-03-02T08:32:37.462Z,34.47
2023-03-02T08:35:04.785Z,31.95
2023-03-02T08:37:31.440Z,34.63
2023-03-02T08:39:58.886Z,34.28
2023-03-02T08:42:25.364Z,32.83
2023-03-02T08:44:51.760Z,33.60
2023-03-02T08:47:18.155Z,33.10
2023-03-02T08:49:45.569Z,35.85
2023-03-02T08:52:15.203Z,34.92
2023-03-02T08:54:41.644Z,35.80
2023-03-02T08:57:11.530Z,37.70
2023-03-02T08:59:37.969Z,36.70
2023-03-02T09:02:04.352Z,35.17
2023-03-02T09:04:30.846Z,37.42
2023-03-02T09:06:57.272Z,33.15
2023-03-02T09:09:23.695Z,36.60
2023-03-02T09:11:50.123Z,36.47
2023-03-02T09:14:16.659Z,34.92
2023-03-02T09:16:43.173Z,34.50
2023-03-02T09:19:11.594Z,35.70
2023-03-02T09:21:37.990Z,34.63
2023-03-02T09:24:04.647Z,35.78
2023-03-02T09:26:31.065Z,39.97
2023-03-02T09:28:57.618Z,38.20
2023-03-02T09:31:24.071Z,36.53
2023-03-02T09:33:50.503Z,37.75
2023-03-02T09:36:22.944Z,34.75
2023-03-02T09:38:49.600Z,36.78
2023-03-02T09:41:18.721Z,37.45
2023-03-02T09:44:03.296Z,35.72
2023-03-02T09:46:54.307Z,38.15
2023-03-02T09:49:55.478Z,39.08
2023-03-02T09:52:31.589Z,38.35
2023-03-02T09:55:06.819Z,38.78
2023-03-02T09:57:38.463Z,40.55
2023-03-02T10:00:19.553Z,36.80
2023-03-02T10:02:48.319Z,40.13
2023-03-02T10:05:22.867Z,38.67
2023-03-02T10:07:49.628Z,37.70
2023-03-02T10:10:29.169Z,35.45
2023-03-02T10:13:25.058Z,36.83
2023-03-02T10:16:03.353Z,38.67
2023-03-02T10:18:43.768Z,38.97
2023-03-02T10:21:25.213Z,36.55
2023-03-02T10:26:42.844Z,37.75
2023-03-02T10:29:43.076Z,39.70
2023-03-02T10:32:22.710Z,42.53
2023-03-02T10:34:53.446Z,40.63
2023-03-02T10:37:25.046Z,41.38
2023-03-02T10:39:52.742Z,44.22
2023-03-02T10:42:37.577Z,43.90
2023-03-02T10:45:27.695Z,42.72
2023-03-02T10:48:01.174Z,41.42
2023-03-02T10:50:27.562Z,40.85
2023-03-02T10:53:00.138Z,40.40
2023-03-02T10:55:27.438Z,39.90
2023-03-02T10:58:06.994Z,36.40
2023-03-02T11:00:34.862Z,39.83
2023-03-02T11:03:05.801Z,38.03
2023-03-02T11:05:37.848Z,37.42
2023-03-02T11:08:09.281Z,35.70
2023-03-02T11:10:55.764Z,35.42
2023-03-02T11:13:36.928Z,36.17
2023-03-02T11:16:21.740Z,34.15
2023-03-02T11:19:13.682Z,33.20
2023-03-02T11:21:47.423Z,33.53
2023-03-02T11:24:40.170Z,33.17
2023-03-02T11:27:13.547Z,33.30
2023-03-02T11:29:58.686Z,33.42
2023-03-02T11:32:34.547Z,33.13
2023-03-02T11:35:12.217Z,30.65
2023-03-02T11:37:52.180Z,29.65
2023-03-02T11:40:23.700Z,29.70
2023-03-02T11:42:51.202Z,29.77
2023-03-02T11:45:22.460Z,29.17
2023-03-02T11:48:02.627Z,28.33
2023-03-02T11:50:34.381Z,28.80
2023-03-02T11:53:06.172Z,29.20
2023-03-02T11:55:39.847Z,26.42
2023-03-02T11:58:07.341Z,28.50
2023-03-02T12:00:37.278Z,28.20
2023-03-02T12:03:20.756Z,26.98
2023-03-02T12:06:05.328Z,28.60
2023-03-02T12:08:37.922Z,26.88
2023-03-02T12:11:18.487Z,26.58
2023-03-02T12:13:54.267Z,28.25
2023-03-02T12:16:42.059Z,28.58
2023-03-02T12:19:41.390Z,29.38
2023-03-02T12:22:12.219Z,27.35
2023-03-02T12:24:41.873Z,27.58
2023-03-02T12:27:20.739Z,28.25
2023-03-02T12:29:51.451Z,27.00
2023-03-02T12:32:20.948Z,26.00
2023-03-02T12:34:54.962Z,26.00
2023-03-02T12:37:46.994Z,26.98
2023-03-02T12:40:33.795Z,26.70
2023-03-02T12:43:24.690Z,26.73
2023-03-02T12:46:13.617Z,27.00
2023-03-02T12:49:03.346Z,26.00
2023-03-02T12:51:43.216Z,25.80
2023-03-02T12:54:16.452Z,25.60
2023-03-02T12:56:43.562Z,23.02
2023-03-02T12:59:25.740Z,24.65
2023-03-02T13:01:52.286Z,25.00
2023-03-02T13:04:24.198Z,23.23
2023-03-02T13:06:51.186Z,24.58
2023-03-02T13:09:20.249Z,24.27
2023-03-02T13:11:48.848Z,22.23
2023-03-02T13:14:21.134Z,22.65
2023-03-02T13:17:25.024Z,20.98
2023-03-02T13:19:52.621Z,20.92
2023-03-02T13:22:20.550Z,21.63
2023-03-02T13:24:51.672Z,22.33
2023-03-02T13:29:49.664Z,17.23
2023-03-02T13:32:17.973Z,23.17
2023-03-02T13:34:53.555Z,23.63
2023-03-02T13:37:33.878Z,23.48
2023-03-02T13:40:07.244Z,23.73
2023-03-02T13:42:40.080Z,23.95
2023-03-02T13:45:22.381Z,24.17
2023-03-02T13:47:48.837Z,23.23
2023-03-02T13:50:20.583Z,23.13
2023-03-02T13:52:48.106Z,23.98
2023-03-02T13:55:17.369Z,24.73
2023-03-02T13:57:45.883Z,26.17
2023-03-02T14:00:22.046Z,24.33
2023-03-02T14:02:50.394Z,23.35
2023-03-02T14:05:19.113Z,23.40
2023-03-02T14:07:46.443Z,24.05
2023-03-02T14:10:17.779Z,23.70
2023-03-02T14:12:54.143Z,22.08
2023-03-02T14:15:20.710Z,22.25
2023-03-02T14:17:49.122Z,22.27
2023-03-02T14:20:19.243Z,22.13
2023-03-02T14:22:46.688Z,20.03
2023-03-02T14:25:13.683Z,20.55
2023-03-02T14:27:41.301Z,21.75
2023-03-02T14:30:19.951Z,20.45
2023-03-02T14:32:46.678Z,20.25
2023-03-02T14:35:16.465Z,19.63
2023-03-02T14:37:46.960Z,19.38
2023-03-02T14:40:20.956Z,18.80
2023-03-02T14:42:48.454Z,18.63
2023-03-02T14:45:14.849Z,19.15
2023-03-02T14:47:41.241Z,19.35
2023-03-02T14:50:09.090Z,17.75
2023-03-02T14:52:39.965Z,15.90
2023-03-02T14:55:23.633Z,16.27
2023-03-02T14:57:54.633Z,15.65
2023-03-02T15:00:21.618Z,15.10
2023-03-02T15:02:48.333Z,15.10
2023-03-02T15:05:14.965Z,15.77
2023-03-02T15:07:41.442Z,15.57
2023-03-02T15:10:12.450Z,15.63
2023-03-02T15:15:05.473Z,14.55
2023-03-02T15:17:31.935Z,15.25
2023-03-02T15:19:58.323Z,16.83
2023-03-02T15:22:24.889Z,15.50
2023-03-02T15:24:51.320Z,15.13
2023-03-02T15:27:18.530Z,15.13
2023-03-02T15:29:46.229Z,15.70
2023-03-02T15:32:13.371Z,15.88
2023-03-02T15:34:40.169Z,16.98
2023-03-02T15:37:06.866Z,16.45
2023-03-02T15:39:34.003Z,17.27
2023-03-02T15:42:01.088Z,16.42
2023-03-02T15:44:29.578Z,17.15
2023-03-02T15:46:58.382Z,18.10
2023-03-02T15:49:27.958Z,17.05
2023-03-02T15:51:57.593Z,17.98
2023-03-02T15:54:28.005Z,17.52
2023-03-02T15:56:54.505Z,16.97
2023-03-02T15:59:26.533Z,17.55
2023-03-02T16:01:53.560Z,19.30
2023-03-02T16:04:20.282Z,17.67
2023-03-02T16:06:46.700Z,18.45
2023-03-02T16:09:13.131Z,19.30
2023-03-02T16:11:39.580Z,18.73
2023-03-02T16:14:06.072Z,18.83
2023-03-02T16:16:32.930Z,19.70
2023-03-02T16:18:59.459Z,19.98
2023-03-02T16:21:28.328Z,18.98
2023-03-02T16:23:56.323Z,19.88
2023-03-02T16:26:22.892Z,19.20
2023-03-02T16:28:49.324Z,20.00
2023-03-02T16:31:18.739Z,19.92
2023-03-02T16:33:46.129Z,20.13
2023-03-02T16:36:14.346Z,20.35
2023-03-02T16:38:41.444Z,19.55
2023-03-02T16:41:14.346Z,19.42
2023-03-02T16:43:46.980Z,21.05
2023-03-02T16:46:13.673Z,21.00
2023-03-02T16:48:40.233Z,20.55
2023-03-02T16:51:06.739Z,20.08
2023-03-02T16:53:33.400Z,20.80
2023-03-02T16:55:59.922Z,19.98
2023-03-02T16:58:26.404Z,19.73
2023-03-02T17:00:53.130Z,20.85
2023-03-02T17:03:19.686Z,20.08
2023-03-02T17:05:46.134Z,21.27
2023-03-02T17:08:14.382Z,22.85
2023-03-02T17:10:41.703Z,23.00
2023-03-02T17:13:08.340Z,21.73
2023-03-02T17:15:34.851Z,21.35
2023-03-02T17:18:01.309Z,20.50
2023-03-02T17:20:27.827Z,21.15
2023-03-02T17:22:54.637Z,21.48
2023-03-02T17:25:21.727Z,21.40
2023-03-02T17:27:48.108Z,21.38
2023-03-02T17:30:15.661Z,22.08
2023-03-02T17:32:42.278Z,20.80
2023-03-02T17:35:11.281Z,22.40
2023-03-02T17:37:38.098Z,22.73
2023-03-02T17:40:06.614Z,22.50
2023-03-02T17:42:33.113Z,24.75
2023-03-02T17:44:59.515Z,21.60
2023-03-02T17:47:26.077Z,24.80
2023-03-02T17:49:52.488Z,19.83
2023-03-02T17:52:19.280Z,17.75
2023-03-02T17:54:46.092Z,18.65
2023-03-02T17:57:13.336Z,19.05
2023-03-02T17:59:39.731Z,18.98
2023-03-02T18:02:06.128Z,20.52
2023-03-02T18:04:32.562Z,18.75
2023-03-02T18:06:59.018Z,18.05
2023-03-02T18:09:25.432Z,17.98
2023-03-02T18:11:52.033Z,17.38
2023-03-02T18:14:20.273Z,18.27
2023-03-02T18:16:47.875Z,18.20
2023-03-02T18:19:14.417Z,17.25
2023-03-02T18:21:41.763Z,16.77
2023-03-02T18:24:09.352Z,16.60
2023-03-02T18:26:35.797Z,17.10
2023-03-02T18:29:02.324Z,16.85
2023-03-02T18:31:28.992Z,17.85
2023-03-02T18:33:55.449Z,16.45
2023-03-02T18:36:21.897Z,17.83
2023-03-02T18:38:48.329Z,18.00
2023-03-02T18:41:17.385Z,17.40
2023-03-02T18:43:43.889Z,16.92
2023-03-02T18:46:25.482Z,16.08
2023-03-02T18:48:52.907Z,17.13
2023-03-02T18:51:20.872Z,16.30
2023-03-02T18:53:47.768Z,16.88
2023-03-02T18:56:14.585Z,15.05
2023-03-02T18:58:41.682Z,15.00
2023-03-02T19:01:09.064Z,16.33
2023-03-02T19:03:37.025Z,16.98
2023-03-02T19:06:04.085Z,17.27
2023-03-02T19:08:30.758Z,15.07
2023-03-02T19:10:57.243Z,15.68
2023-03-02T19:13:23.931Z,15.70
2023-03-02T19:15:54.150Z,16.67
2023-03-02T19:18:23.431Z,16.98
2023-03-02T19:20:51.472Z,17.15
2023-03-02T19:23:18.025Z,17.02
2023-03-02T19:25:45.805Z,17.38
2023-03-02T19:28:12.550Z,18.55
2023-03-02T19:30:40.086Z,18.65
2023-03-02T19:33:07.330Z,16.33
2023-03-02T19:35:34.123Z,17.00
2023-03-02T19:38:01.189Z,18.42
2023-03-02T19:40:30.200Z,19.70
2023-03-02T19:42:57.165Z,18.58
2023-03-02T19:45:28.569Z,17.95
2023-03-02T19:47:59.513Z,19.83
2023-03-02T19:50:27.032Z,19.42
2023-03-02T19:52:55.053Z,18.45
2023-03-02T19:55:22.430Z,16.70
2023-03-02T19:57:56.517Z,19.48
2023-03-02T20:00:23.834Z,17.58
2023-03-02T20:02:50.294Z,17.77
2023-03-02T20:05:17.295Z,17.15
2023-03-02T20:07:44.137Z,17.67
2023-03-02T20:10:11.410Z,18.58
2023-03-02T20:12:37.844Z,17.80
2023-03-02T20:15:06.001Z,15.52
2023-03-02T20:17:32.496Z,18.55
2023-03-02T20:20:01.156Z,16.98
2023-03-02T20:22:27.616Z,16.30
2023-03-02T20:24:54.042Z,18.17
2023-03-02T20:27:21.202Z,16.42
2023-03-02T20:29:48.212Z,15.88
2023-03-02T20:32:16.187Z,16.25
2023-03-02T20:34:43.345Z,14.52
2023-03-02T20:37:13.633Z,15.27
2023-03-02T20:39:42.207Z,16.27
2023-03-02T20:42:09.262Z,17.00
2023-03-02T20:44:36.055Z,15.48
2023-03-02T20:47:08.210Z,14.88
2023-03-02T20:49:35.763Z,14.75
2023-03-02T20:52:02.843Z,14.15
2023-03-02T20:54:34.422Z,14.18
2023-03-02T20:57:01.023Z,12.23
2023-03-02T20:59:28.451Z,12.05
2023-03-02T21:01:54.858Z,12.68
2023-03-02T21:04:21.554Z,13.60
2023-03-02T21:06:48.178Z,13.75
2023-03-02T21:09:15.055Z,13.43
2023-03-02T21:11:41.486Z,12.55
2023-03-02T21:14:08.268Z,14.57
2023-03-02T21:16:37.964Z,14.25
2023-03-02T21:19:08.598Z,15.35
2023-03-02T21:21:41.317Z,13.35
2023-03-02T21:24:09.898Z,12.40
2023-03-02T21:26:36.853Z,14.48
2023-03-02T21:29:05.184Z,14.85
2023-03-02T21:31:31.730Z,13.35
2023-03-02T21:33:58.233Z,14.45
2023-03-02T21:36:26.558Z,12.85
2023-03-02T21:38:53.065Z,13.45
2023-03-02T21:41:20.089Z,12.55
2023-03-02T21:43:47.677Z,13.70
2023-03-02T21:46:16.752Z,14.65
2023-03-02T21:48:43.683Z,14.93
2023-03-02T21:51:12.262Z,12.63
2023-03-02T21:53:38.721Z,14.80
2023-03-02T21:56:05.944Z,13.68
2023-03-02T21:58:32.429Z,13.80
2023-03-02T22:00:58.840Z,13.13
2023-03-02T22:03:25.327Z,15.13
2023-03-02T22:05:51.920Z,13.52
2023-03-02T22:08:20.694Z,14.48
2023-03-02T22:10:51.273Z,14.27
2023-03-02T22:13:26.693Z,14.93
2023-03-02T22:16:13.495Z,14.30
2023-03-02T22:18:40.549Z,14.68
2023-03-02T22:21:29.879Z,15.18
2023-03-02T22:24:10.503Z,12.68
2023-03-02T22:26:56.909Z,14.30
2023-03-02T22:29:26.410Z,14.57
2023-03-02T22:31:55.663Z,14.55
2023-03-02T22:34:28.967Z,14.02
2023-03-02T22:36:58.777Z,14.10
2023-03-02T22:39:31.564Z,14.20
2023-03-02T22:42:01.610Z,15.52
2023-03-02T22:44:28.073Z,15.00
2023-03-02T22:46:56.579Z,15.27
2023-03-02T22:49:23.092Z,15.02
2023-03-02T22:51:49.510Z,16.27
2023-03-02T22:54:24.275Z,15.73
2023-03-02T22:56:52.700Z,16.42
2023-03-02T22:59:24.288Z,14.82
2023-03-02T23:01:52.773Z,14.23
2023-03-02T23:04:20.606Z,14.60
2023-03-02T23:06:54.157Z,14.80
2023-03-02T23:09:32.319Z,15.30
2023-03-02T23:12:01.918Z,15.00
2023-03-02T23:14:49.857Z,16.35
2023-03-02T23:17:23.861Z,15.77
2023-03-02T23:19:51.328Z,16.45
2023-03-02T23:22:18.218Z,16.33
2023-03-02T23:24:44.930Z,16.13
2023-03-02T23:27:11.628Z,17.20
2023-03-02T23:29:38.257Z,18.98
2023-03-02T23:32:04.855Z,16.67
2023-03-02T23:34:31.372Z,17.58
2023-03-02T23:36:58.655Z,15.32
2023-03-02T23:39:25.935Z,16.10
2023-03-02T23:41:52.949Z,15.70
2023-03-02T23:44:19.505Z,16.45
2023-03-02T23:46:47.343Z,16.13
2023-03-02T23:49:14.126Z,16.15
2023-03-02T23:51:40.872Z,16.25
2023-03-02T23:54:07.903Z,15.77
2023-03-02T23:56:34.319Z,16.70
2023-03-02T23:59:02.141Z,15.55
